createdAt,value
2023-05-10T00:00:29.498Z,544.00
2023-05-10T00:01:29.552Z,555.00
2023-05-10T00:02:29.708Z,549.00
2023-05-10T00:03:29.700Z,551.00
2023-05-10T00:04:29.645Z,550.00
2023-05-10T00:05:29.629Z,551.00
2023-05-10T00:06:29.687Z,550.00
2023-05-10T00:07:29.714Z,552.00
2023-05-10T00:08:29.725Z,548.00
2023-05-10T00:09:29.741Z,547.00
2023-05-10T00:10:29.769Z,545.00
2023-05-10T00:11:29.843Z,555.00
2023-05-10T00:12:29.813Z,551.00
2023-05-10T00:13:29.957Z,553.00
2023-05-10T00:14:29.905Z,549.00
2023-05-10T00:15:29.916Z,545.00
2023-05-10T00:16:29.996Z,550.00
2023-05-10T00:17:30.019Z,550.00
2023-05-10T00:18:30.047Z,552.00
2023-05-10T00:19:30.053Z,548.00
2023-05-10T00:20:30.131Z,543.00
2023-05-10T00:21:30.155Z,550.00
2023-05-10T00:22:30.154Z,550.00
2023-05-10T00:23:30.555Z,547.00
2023-05-10T00:24:30.154Z,550.00
2023-05-10T00:25:30.164Z,549.00
2023-05-10T00:26:30.194Z,548.00
2023-05-10T00:27:30.205Z,545.00
2023-05-10T00:28:30.253Z,544.00
2023-05-10T00:29:30.272Z,544.00
2023-05-10T00:30:30.302Z,544.00
2023-05-10T00:31:30.355Z,553.00
2023-05-10T00:32:30.384Z,547.00
2023-05-10T00:33:30.396Z,550.00
2023-05-10T00:34:30.392Z,546.00
2023-05-10T00:35:30.480Z,544.00
2023-05-10T00:36:30.531Z,545.00
2023-05-10T00:37:30.523Z,548.00
2023-05-10T00:38:30.551Z,544.00
2023-05-10T00:39:30.603Z,547.00
2023-05-10T00:40:30.611Z,545.00
2023-05-10T00:41:30.657Z,543.00
2023-05-10T00:42:30.678Z,543.00
2023-05-10T00:43:30.669Z,546.00
2023-05-10T00:44:30.662Z,541.00
2023-05-10T00:45:30.691Z,545.00
2023-05-10T00:46:30.844Z,542.00
2023-05-10T00:47:30.777Z,544.00
2023-05-10T00:48:30.767Z,543.00
2023-05-10T00:49:30.772Z,539.00
2023-05-10T00:50:30.753Z,539.00
2023-05-10T00:51:30.747Z,537.00
2023-05-10T00:52:30.763Z,542.00
2023-05-10T00:53:31.059Z,542.00
2023-05-10T00:54:30.824Z,540.00
2023-05-10T00:55:30.811Z,539.00
2023-05-10T00:56:30.908Z,539.00
2023-05-10T00:57:30.818Z,545.00
2023-05-10T00:58:30.847Z,541.00
2023-05-10T00:59:30.847Z,540.00
2023-05-10T01:00:30.857Z,538.00
2023-05-10T01:01:30.869Z,536.00
2023-05-10T01:02:30.948Z,540.00
2023-05-10T01:03:30.932Z,541.00
2023-05-10T01:04:30.908Z,539.00
2023-05-10T01:05:30.885Z,542.00
2023-05-10T01:06:31.588Z,539.00
2023-05-10T01:07:30.897Z,539.00
2023-05-10T01:08:30.906Z,537.00
2023-05-10T01:09:30.925Z,539.00
2023-05-10T01:10:30.926Z,535.00
2023-05-10T01:11:30.930Z,539.00
2023-05-10T01:12:30.966Z,537.00
2023-05-10T01:13:31.084Z,539.00
2023-05-10T01:14:30.984Z,535.00
2023-05-10T01:15:31.014Z,537.00
2023-05-10T01:16:31.056Z,536.00
2023-05-10T01:17:31.017Z,538.00
2023-05-10T01:18:31.003Z,533.00
2023-05-10T01:19:30.977Z,536.00
2023-05-10T01:20:31.021Z,535.00
2023-05-10T01:21:31.006Z,533.00
2023-05-10T01:22:31.021Z,536.00
2023-05-10T01:23:31.082Z,537.00
2023-05-10T01:24:31.019Z,532.00
2023-05-10T01:25:31.055Z,536.00
2023-05-10T01:26:31.083Z,533.00
2023-05-10T01:27:31.096Z,538.00
2023-05-10T01:28:31.567Z,534.00
2023-05-10T01:29:31.121Z,532.00
2023-05-10T01:30:31.142Z,536.00
2023-05-10T01:31:31.204Z,536.00
2023-05-10T01:32:31.171Z,534.00
2023-05-10T01:33:31.602Z,535.00
2023-05-10T01:34:31.217Z,531.00
2023-05-10T01:35:31.250Z,535.00
2023-05-10T01:36:31.265Z,539.00
2023-05-10T01:37:31.268Z,534.00
2023-05-10T01:38:31.575Z,539.00
2023-05-10T01:39:31.307Z,540.00
2023-05-10T01:40:31.294Z,538.00
2023-05-10T01:41:31.291Z,537.00
2023-05-10T01:42:31.311Z,532.00
2023-05-10T01:43:31.599Z,536.00
2023-05-10T01:44:31.309Z,536.00
2023-05-10T01:45:31.324Z,534.00
2023-05-10T01:46:31.371Z,532.00
2023-05-10T01:47:31.372Z,533.00
2023-05-10T01:48:31.397Z,531.00
2023-05-10T01:49:31.357Z,536.00
2023-05-10T01:50:31.387Z,538.00
2023-05-10T01:51:31.377Z,536.00
2023-05-10T01:52:31.426Z,533.00
2023-05-10T01:53:31.393Z,529.00
2023-05-10T01:54:31.412Z,535.00
2023-05-10T01:55:31.436Z,535.00
2023-05-10T01:56:31.376Z,535.00
2023-05-10T01:57:31.380Z,534.00
2023-05-10T01:58:31.393Z,534.00
2023-05-10T01:59:31.413Z,534.00
2023-05-10T02:00:31.427Z,534.00
2023-05-10T02:01:31.379Z,531.00
2023-05-10T02:02:31.393Z,533.00
2023-05-10T02:03:31.414Z,531.00
2023-05-10T02:04:31.411Z,531.00
2023-05-10T02:05:31.369Z,527.00
2023-05-10T02:06:31.359Z,532.00
2023-05-10T02:07:31.409Z,532.00
2023-05-10T02:08:31.408Z,532.00
2023-05-10T02:09:31.404Z,534.00
2023-05-10T02:10:31.393Z,526.00
2023-05-10T02:11:31.379Z,534.00
2023-05-10T02:12:31.393Z,533.00
2023-05-10T02:13:31.674Z,528.00
2023-05-10T02:14:31.382Z,527.00
2023-05-10T02:15:31.394Z,530.00
2023-05-10T02:16:31.434Z,526.00
2023-05-10T02:17:31.428Z,525.00
2023-05-10T02:18:31.356Z,531.00
2023-05-10T02:19:31.407Z,531.00
2023-05-10T02:20:31.336Z,532.00
2023-05-10T02:21:31.368Z,528.00
2023-05-10T02:22:31.378Z,525.00
2023-05-10T02:23:31.352Z,527.00
2023-05-10T02:24:31.343Z,527.00
2023-05-10T02:25:31.328Z,520.00
2023-05-10T02:26:31.357Z,526.00
2023-05-10T02:27:31.366Z,528.00
2023-05-10T02:28:31.347Z,528.00
2023-05-10T02:29:31.316Z,533.00
2023-05-10T02:30:31.325Z,528.00
2023-05-10T02:31:31.335Z,530.00
2023-05-10T02:32:31.340Z,532.00
2023-05-10T02:33:31.313Z,529.00
2023-05-10T02:34:31.321Z,528.00
2023-05-10T02:35:31.294Z,526.00
2023-05-10T02:36:31.293Z,527.00
2023-05-10T02:37:31.345Z,527.00
2023-05-10T02:38:31.302Z,529.00
2023-05-10T02:39:31.268Z,525.00
2023-05-10T02:40:31.304Z,526.00
2023-05-10T02:41:31.248Z,530.00
2023-05-10T02:42:31.256Z,530.00
2023-05-10T02:43:31.282Z,527.00
2023-05-10T02:44:31.586Z,528.00
2023-05-10T02:45:31.282Z,530.00
2023-05-10T02:46:31.296Z,527.00
2023-05-10T02:47:31.298Z,528.00
2023-05-10T02:48:31.236Z,526.00
2023-05-10T02:49:31.652Z,527.00
2023-05-10T02:50:31.227Z,527.00
2023-05-10T02:51:31.241Z,530.00
2023-05-10T02:52:31.227Z,526.00
2023-05-10T02:53:31.245Z,530.00
2023-05-10T02:54:31.608Z,528.00
2023-05-10T02:55:31.228Z,523.00
2023-05-10T02:56:31.208Z,528.00
2023-05-10T02:57:31.193Z,526.00
2023-05-10T02:58:31.216Z,522.00
2023-05-10T02:59:31.613Z,526.00
2023-05-10T03:00:31.188Z,524.00
2023-05-10T03:01:31.275Z,527.00
2023-05-10T03:02:31.224Z,524.00
2023-05-10T03:03:31.218Z,525.00
2023-05-10T03:04:31.686Z,526.00
2023-05-10T03:05:31.168Z,528.00
2023-05-10T03:06:31.206Z,525.00
2023-05-10T03:07:31.182Z,526.00
2023-05-10T03:08:31.190Z,523.00
2023-05-10T03:09:31.607Z,526.00
2023-05-10T03:10:31.154Z,524.00
2023-05-10T03:11:31.165Z,528.00
2023-05-10T03:12:31.178Z,532.00
2023-05-10T03:13:31.213Z,524.00
2023-05-10T03:14:31.610Z,526.00
2023-05-10T03:15:31.131Z,522.00
2023-05-10T03:16:31.173Z,525.00
2023-05-10T03:17:31.222Z,524.00
2023-05-10T03:18:31.123Z,523.00
2023-05-10T03:19:31.610Z,526.00
2023-05-10T03:20:31.147Z,527.00
2023-05-10T03:21:31.102Z,524.00
2023-05-10T03:22:31.144Z,524.00
2023-05-10T03:23:31.151Z,521.00
2023-05-10T03:24:31.120Z,529.00
2023-05-10T03:25:31.111Z,525.00
2023-05-10T03:26:31.136Z,522.00
2023-05-10T03:27:31.116Z,525.00
2023-05-10T03:28:31.112Z,525.00
2023-05-10T03:29:31.127Z,523.00
2023-05-10T03:30:31.101Z,526.00
2023-05-10T03:31:31.154Z,518.00
2023-05-10T03:32:31.135Z,522.00
2023-05-10T03:33:31.073Z,523.00
2023-05-10T03:34:31.103Z,526.00
2023-05-10T03:35:31.077Z,521.00
2023-05-10T03:36:31.057Z,522.00
2023-05-10T03:37:31.085Z,520.00
2023-05-10T03:38:31.059Z,526.00
2023-05-10T03:39:31.047Z,518.00
2023-05-10T03:40:31.034Z,525.00
2023-05-10T03:41:31.071Z,523.00
2023-05-10T03:42:31.021Z,522.00
2023-05-10T03:43:31.076Z,523.00
2023-05-10T03:44:31.011Z,523.00
2023-05-10T03:45:31.036Z,525.00
2023-05-10T03:46:31.043Z,525.00
2023-05-10T03:47:31.067Z,523.00
2023-05-10T03:48:31.024Z,521.00
2023-05-10T03:49:31.132Z,522.00
2023-05-10T03:50:30.995Z,524.00
2023-05-10T03:51:31.000Z,524.00
2023-05-10T03:52:31.053Z,525.00
2023-05-10T03:53:31.010Z,519.00
2023-05-10T03:54:31.143Z,522.00
2023-05-10T03:55:31.014Z,518.00
2023-05-10T03:56:31.029Z,520.00
2023-05-10T03:57:30.989Z,518.00
2023-05-10T03:58:30.980Z,524.00
2023-05-10T03:59:30.994Z,523.00
2023-05-10T04:00:30.952Z,520.00
2023-05-10T04:01:30.947Z,522.00
2023-05-10T04:02:31.099Z,517.00
2023-05-10T04:03:31.034Z,517.00
2023-05-10T04:04:30.953Z,516.00
2023-05-10T04:05:30.959Z,520.00
2023-05-10T04:06:30.935Z,518.00
2023-05-10T04:07:30.930Z,519.00
2023-05-10T04:08:30.950Z,515.00
2023-05-10T04:09:30.933Z,522.00
2023-05-10T04:10:30.929Z,520.00
2023-05-10T04:11:30.907Z,521.00
2023-05-10T04:12:30.886Z,517.00
2023-05-10T04:13:30.886Z,516.00
2023-05-10T04:14:30.900Z,520.00
2023-05-10T04:15:30.915Z,514.00
2023-05-10T04:16:30.907Z,517.00
2023-05-10T04:17:30.992Z,516.00
2023-05-10T04:18:30.861Z,517.00
2023-05-10T04:19:30.877Z,518.00
2023-05-10T04:20:30.881Z,517.00
2023-05-10T04:21:30.835Z,518.00
2023-05-10T04:22:30.847Z,517.00
2023-05-10T04:23:30.835Z,519.00
2023-05-10T04:24:31.155Z,515.00
2023-05-10T04:25:30.830Z,520.00
2023-05-10T04:26:30.832Z,519.00
2023-05-10T04:27:30.903Z,519.00
2023-05-10T04:28:30.868Z,517.00
2023-05-10T04:29:30.828Z,520.00
2023-05-10T04:30:30.833Z,520.00
2023-05-10T04:31:30.824Z,519.00
2023-05-10T04:32:30.840Z,519.00
2023-05-10T04:33:30.780Z,514.00
2023-05-10T04:34:30.835Z,515.00
2023-05-10T04:35:30.810Z,517.00
2023-05-10T04:36:30.822Z,512.00
2023-05-10T04:37:30.792Z,516.00
2023-05-10T04:38:30.804Z,512.00
2023-05-10T04:39:30.780Z,512.00
2023-05-10T04:40:30.780Z,514.00
2023-05-10T04:41:30.790Z,510.00
2023-05-10T04:42:30.744Z,515.00
2023-05-10T04:43:30.764Z,512.00
2023-05-10T04:44:30.764Z,516.00
2023-05-10T04:45:30.808Z,513.00
2023-05-10T04:46:30.794Z,520.00
2023-05-10T04:47:30.829Z,516.00
2023-05-10T04:48:30.787Z,515.00
2023-05-10T04:49:31.153Z,514.00
2023-05-10T04:50:30.736Z,514.00
2023-05-10T04:51:30.782Z,514.00
2023-05-10T04:52:30.767Z,515.00
2023-05-10T04:53:30.765Z,516.00
2023-05-10T04:54:30.780Z,512.00
2023-05-10T04:55:30.772Z,511.00
2023-05-10T04:56:30.780Z,512.00
2023-05-10T04:57:30.735Z,517.00
2023-05-10T04:58:30.745Z,509.00
2023-05-10T04:59:30.767Z,509.00
2023-05-10T05:00:30.746Z,514.00
2023-05-10T05:01:30.818Z,507.00
2023-05-10T05:02:30.914Z,508.00
2023-05-10T05:03:30.815Z,512.00
2023-05-10T05:04:31.153Z,511.00
2023-05-10T05:05:30.742Z,508.00
2023-05-10T05:06:30.763Z,508.00
2023-05-10T05:07:30.764Z,507.00
2023-05-10T05:08:30.732Z,512.00
2023-05-10T05:09:30.740Z,511.00
2023-05-10T05:10:30.762Z,508.00
2023-05-10T05:11:30.713Z,511.00
2023-05-10T05:12:30.718Z,513.00
2023-05-10T05:13:30.749Z,511.00
2023-05-10T05:14:30.712Z,507.00
2023-05-10T05:15:30.706Z,507.00
2023-05-10T05:16:30.742Z,505.00
2023-05-10T05:17:30.738Z,511.00
2023-05-10T05:18:30.686Z,512.00
2023-05-10T05:19:30.743Z,508.00
2023-05-10T05:20:30.690Z,509.00
2023-05-10T05:21:30.680Z,507.00
2023-05-10T05:22:30.682Z,506.00
2023-05-10T05:23:30.705Z,508.00
2023-05-10T05:24:30.695Z,510.00
2023-05-10T05:25:30.679Z,509.00
2023-05-10T05:26:30.690Z,514.00
2023-05-10T05:27:30.697Z,512.00
2023-05-10T05:28:30.680Z,509.00
2023-05-10T05:29:30.658Z,506.00
2023-05-10T05:30:30.703Z,507.00
2023-05-10T05:31:30.700Z,510.00
2023-05-10T05:32:30.698Z,508.00
2023-05-10T05:33:30.688Z,509.00
2023-05-10T05:34:30.677Z,511.00
2023-05-10T05:35:30.681Z,507.00
2023-05-10T05:36:30.693Z,507.00
2023-05-10T05:37:30.690Z,503.00
2023-05-10T05:38:30.709Z,504.00
2023-05-10T05:39:30.702Z,508.00
2023-05-10T05:40:30.681Z,506.00
2023-05-10T05:41:30.681Z,511.00
2023-05-10T05:42:30.652Z,511.00
2023-05-10T05:43:30.731Z,506.00
2023-05-10T05:44:31.135Z,509.00
2023-05-10T05:45:30.744Z,510.00
2023-05-10T05:46:30.654Z,506.00
2023-05-10T05:47:30.696Z,504.00
2023-05-10T05:48:30.674Z,514.00
2023-05-10T05:49:30.681Z,511.00
2023-05-10T05:50:30.653Z,506.00
2023-05-10T05:51:30.662Z,509.00
2023-05-10T05:52:30.637Z,505.00
2023-05-10T05:53:30.649Z,502.00
2023-05-10T05:54:30.681Z,508.00
2023-05-10T05:55:30.668Z,507.00
2023-05-10T05:56:30.665Z,510.00
2023-05-10T05:57:30.664Z,505.00
2023-05-10T05:58:30.700Z,508.00
2023-05-10T05:59:30.639Z,509.00
2023-05-10T06:00:30.643Z,507.00
2023-05-10T06:01:30.662Z,510.00
2023-05-10T06:02:30.793Z,510.00
2023-05-10T06:03:30.815Z,505.00
2023-05-10T06:04:30.669Z,512.00
2023-05-10T06:05:30.674Z,510.00
2023-05-10T06:06:30.661Z,513.00
2023-05-10T06:07:30.633Z,519.00
2023-05-10T06:08:30.653Z,504.00
2023-05-10T06:09:30.647Z,517.00
2023-05-10T06:10:30.604Z,517.00
2023-05-10T06:11:30.616Z,524.00
2023-05-10T06:12:30.634Z,528.00
2023-05-10T06:13:30.691Z,532.00
2023-05-10T06:14:30.661Z,523.00
2023-05-10T06:15:30.643Z,510.00
2023-05-10T06:16:30.642Z,524.00
2023-05-10T06:17:30.681Z,524.00
2023-05-10T06:18:30.671Z,533.00
2023-05-10T06:19:30.767Z,533.00
2023-05-10T06:20:30.766Z,540.00
2023-05-10T06:21:30.812Z,542.00
2023-05-10T06:22:30.864Z,533.00
2023-05-10T06:23:30.896Z,541.00
2023-05-10T06:24:31.186Z,542.00
2023-05-10T06:25:31.013Z,543.00
2023-05-10T06:26:31.055Z,537.00
2023-05-10T06:27:31.167Z,545.00
2023-05-10T06:28:31.229Z,538.00
2023-05-10T06:29:31.679Z,541.00
2023-05-10T06:30:31.338Z,541.00
2023-05-10T06:31:31.420Z,543.00
2023-05-10T06:32:31.509Z,545.00
2023-05-10T06:33:31.529Z,548.00
2023-05-10T06:34:31.676Z,548.00
2023-05-10T06:35:31.626Z,551.00
2023-05-10T06:36:31.698Z,546.00
2023-05-10T06:37:31.752Z,544.00
2023-05-10T06:38:31.800Z,548.00
2023-05-10T06:39:31.923Z,551.00
2023-05-10T06:40:31.974Z,553.00
2023-05-10T06:41:32.036Z,552.00
2023-05-10T06:42:32.047Z,553.00
2023-05-10T06:43:32.131Z,554.00
2023-05-10T06:44:32.164Z,551.00
2023-05-10T06:45:32.234Z,557.00
2023-05-10T06:46:32.327Z,555.00
2023-05-10T06:47:32.373Z,551.00
2023-05-10T06:48:32.350Z,557.00
2023-05-10T06:49:32.435Z,555.00
2023-05-10T06:50:32.504Z,554.00
2023-05-10T06:51:32.514Z,558.00
2023-05-10T06:52:32.594Z,552.00
2023-05-10T06:53:32.594Z,547.00
2023-05-10T06:54:32.676Z,551.00
2023-05-10T06:55:32.724Z,546.00
2023-05-10T06:56:32.790Z,550.00
2023-05-10T06:57:32.829Z,557.00
2023-05-10T06:58:32.838Z,555.00
2023-05-10T06:59:32.936Z,550.00
2023-05-10T07:00:32.977Z,556.00
2023-05-10T07:01:33.029Z,563.00
2023-05-10T07:02:33.158Z,552.00
2023-05-10T07:03:33.092Z,550.00
2023-05-10T07:04:33.188Z,555.00
2023-05-10T07:05:33.413Z,552.00
2023-05-10T07:06:33.919Z,553.00
2023-05-10T07:07:33.300Z,556.00
2023-05-10T07:08:33.330Z,559.00
2023-05-10T07:09:33.448Z,559.00
2023-05-10T07:10:33.398Z,559.00
2023-05-10T07:11:33.437Z,554.00
2023-05-10T07:12:33.536Z,561.00
2023-05-10T07:13:33.563Z,557.00
2023-05-10T07:14:33.672Z,563.00
2023-05-10T07:15:33.645Z,560.00
2023-05-10T07:16:33.683Z,560.00
2023-05-10T07:17:33.716Z,565.00
2023-05-10T07:18:33.757Z,560.00
2023-05-10T07:19:33.793Z,556.00
2023-05-10T07:20:33.813Z,558.00
2023-05-10T07:21:33.954Z,561.00
2023-05-10T07:22:33.907Z,556.00
2023-05-10T07:23:33.951Z,557.00
2023-05-10T07:24:34.202Z,558.00
2023-05-10T07:25:34.033Z,561.00
2023-05-10T07:26:34.022Z,558.00
2023-05-10T07:27:34.061Z,548.00
2023-05-10T07:28:34.126Z,535.00
2023-05-10T07:29:34.214Z,538.00
2023-05-10T07:30:34.283Z,511.00
2023-05-10T07:31:34.232Z,531.00
2023-05-10T07:32:34.286Z,524.00
2023-05-10T07:33:34.328Z,512.00
2023-05-10T07:34:34.358Z,529.00
2023-05-10T07:35:34.395Z,538.00
2023-05-10T07:36:34.444Z,545.00
2023-05-10T07:37:34.462Z,546.00
2023-05-10T07:38:34.519Z,549.00
2023-05-10T07:39:34.574Z,549.00
2023-05-10T07:40:34.602Z,549.00
2023-05-10T07:41:35.841Z,557.00
2023-05-10T07:42:35.243Z,557.00
2023-05-10T07:43:34.730Z,556.00
2023-05-10T07:44:35.190Z,558.00
2023-05-10T07:45:34.788Z,564.00
2023-05-10T07:46:34.849Z,560.00
2023-05-10T07:47:34.951Z,564.00
2023-05-10T07:48:34.902Z,561.00
2023-05-10T07:49:34.994Z,560.00
2023-05-10T07:50:34.986Z,561.00
2023-05-10T07:51:35.018Z,563.00
2023-05-10T07:52:35.073Z,558.00
2023-05-10T07:53:35.152Z,562.00
2023-05-10T07:54:35.215Z,560.00
2023-05-10T07:55:35.175Z,559.00
2023-05-10T07:56:35.221Z,553.00
2023-05-10T07:57:35.267Z,561.00
2023-05-10T07:58:35.289Z,562.00
2023-05-10T07:59:35.684Z,561.00
2023-05-10T08:00:35.373Z,556.00
2023-05-10T08:01:35.380Z,559.00
2023-05-10T08:02:35.573Z,561.00
2023-05-10T08:03:35.529Z,560.00
2023-05-10T08:04:35.505Z,561.00
2023-05-10T08:05:35.868Z,562.00
2023-05-10T08:06:35.577Z,569.00
2023-05-10T08:07:35.614Z,562.00
2023-05-10T08:08:35.755Z,564.00
2023-05-10T08:09:35.699Z,562.00
2023-05-10T08:10:36.231Z,549.00
2023-05-10T08:11:35.753Z,533.00
2023-05-10T08:12:35.761Z,544.00
2023-05-10T08:13:35.810Z,549.00
2023-05-10T08:14:35.830Z,560.00
2023-05-10T08:15:36.241Z,557.00
2023-05-10T08:16:35.909Z,539.00
2023-05-10T08:17:35.975Z,522.00
2023-05-10T08:18:36.044Z,543.00
2023-05-10T08:19:36.006Z,546.00
2023-05-10T08:20:36.217Z,552.00
2023-05-10T08:21:36.096Z,553.00
2023-05-10T08:22:36.154Z,556.00
2023-05-10T08:23:36.144Z,548.00
2023-05-10T08:24:36.202Z,545.00
2023-05-10T08:25:36.233Z,547.00
2023-05-10T08:26:36.257Z,547.00
2023-05-10T08:27:36.279Z,551.00
2023-05-10T08:28:36.328Z,551.00
2023-05-10T08:29:48.850Z,551.00
2023-05-10T08:30:37.794Z,551.00
2023-05-10T08:31:36.438Z,546.00
2023-05-10T08:32:36.423Z,545.00
2023-05-10T08:33:36.346Z,546.00
2023-05-10T08:34:36.310Z,547.00
2023-05-10T08:35:36.363Z,552.00
2023-05-10T08:36:36.328Z,554.00
2023-05-10T08:37:36.293Z,557.00
2023-05-10T08:38:36.296Z,558.00
2023-05-10T08:39:36.300Z,558.00
2023-05-10T08:40:36.703Z,559.00
2023-05-10T08:41:36.331Z,559.00
2023-05-10T08:42:36.379Z,562.00
2023-05-10T08:43:36.374Z,560.00
2023-05-10T08:44:36.414Z,555.00
2023-05-10T08:45:36.469Z,557.00
2023-05-10T08:46:36.561Z,558.00
2023-05-10T08:47:36.539Z,559.00
2023-05-10T08:48:36.567Z,561.00
2023-05-10T08:49:36.591Z,561.00
2023-05-10T08:50:36.600Z,563.00
2023-05-10T08:51:36.632Z,564.00
2023-05-10T08:52:36.685Z,562.00
2023-05-10T08:53:36.725Z,561.00
2023-05-10T08:54:36.770Z,563.00
2023-05-10T08:55:36.800Z,560.00
2023-05-10T08:56:36.778Z,559.00
2023-05-10T08:57:36.819Z,565.00
2023-05-10T08:58:36.859Z,565.00
2023-05-10T08:59:36.883Z,555.00
2023-05-10T09:00:37.286Z,541.00
2023-05-10T09:01:36.960Z,527.00
2023-05-10T09:02:37.012Z,520.00
2023-05-10T09:03:37.022Z,519.00
2023-05-10T09:04:37.118Z,517.00
2023-05-10T09:05:37.081Z,504.00
2023-05-10T09:06:37.190Z,505.00
2023-05-10T09:07:37.186Z,526.00
2023-05-10T09:08:37.230Z,539.00
2023-05-10T09:09:37.259Z,546.00
2023-05-10T09:10:37.307Z,552.00
2023-05-10T09:11:37.333Z,556.00
2023-05-10T09:12:37.379Z,561.00
2023-05-10T09:13:37.483Z,565.00
2023-05-10T09:14:37.462Z,562.00
2023-05-10T09:15:37.746Z,566.00
2023-05-10T09:16:37.584Z,566.00
2023-05-10T09:17:37.686Z,564.00
2023-05-10T09:18:37.595Z,563.00
2023-05-10T09:19:37.652Z,564.00
2023-05-10T09:20:37.648Z,562.00
2023-05-10T09:21:37.692Z,570.00
2023-05-10T09:22:37.734Z,569.00
2023-05-10T09:23:37.735Z,567.00
2023-05-10T09:24:37.782Z,568.00
2023-05-10T09:25:37.802Z,566.00
2023-05-10T09:26:37.823Z,568.00
2023-05-10T09:27:37.862Z,572.00
2023-05-10T09:28:37.904Z,573.00
2023-05-10T09:29:37.914Z,568.00
2023-05-10T09:30:37.959Z,571.00
2023-05-10T09:31:37.983Z,567.00
2023-05-10T09:32:38.015Z,574.00
2023-05-10T09:33:37.990Z,569.00
2023-05-10T09:34:38.039Z,566.00
2023-05-10T09:35:38.030Z,568.00
2023-05-10T09:36:38.137Z,564.00
2023-05-10T09:37:38.140Z,565.00
2023-05-10T09:38:38.145Z,569.00
2023-05-10T09:39:38.156Z,564.00
2023-05-10T09:40:38.228Z,568.00
2023-05-10T09:41:38.176Z,575.00
2023-05-10T09:42:38.199Z,574.00
2023-05-10T09:43:38.210Z,571.00
2023-05-10T09:44:38.252Z,568.00
2023-05-10T09:45:39.278Z,574.00
2023-05-10T09:46:38.402Z,581.00
2023-05-10T09:47:38.372Z,578.00
2023-05-10T09:48:38.340Z,578.00
2023-05-10T09:49:38.343Z,575.00
2023-05-10T09:50:38.741Z,579.00
2023-05-10T09:51:38.377Z,569.00
2023-05-10T09:52:38.408Z,580.00
2023-05-10T09:53:38.430Z,571.00
2023-05-10T09:54:38.466Z,574.00
2023-05-10T09:55:38.755Z,566.00
2023-05-10T09:56:39.234Z,571.00
2023-05-10T09:57:38.521Z,577.00
2023-05-10T09:58:38.556Z,570.00
2023-05-10T09:59:38.510Z,576.00
2023-05-10T10:00:38.568Z,574.00
2023-05-10T10:01:38.630Z,579.00
2023-05-10T10:02:38.603Z,576.00
2023-05-10T10:03:38.595Z,573.00
2023-05-10T10:04:38.665Z,571.00
2023-05-10T10:05:38.624Z,579.00
2023-05-10T10:06:38.654Z,557.00
2023-05-10T10:07:38.665Z,560.00
2023-05-10T10:08:38.726Z,558.00
2023-05-10T10:09:38.729Z,570.00
2023-05-10T10:10:38.738Z,569.00
2023-05-10T10:11:38.747Z,564.00
2023-05-10T10:12:38.773Z,573.00
2023-05-10T10:13:38.781Z,576.00
2023-05-10T10:14:38.808Z,578.00
2023-05-10T10:15:39.282Z,582.00
2023-05-10T10:16:48.540Z,585.00
2023-05-10T10:17:39.831Z,585.00
2023-05-10T10:18:38.814Z,582.00
2023-05-10T10:19:38.834Z,581.00
2023-05-10T10:20:39.253Z,564.00
2023-05-10T10:21:38.797Z,575.00
2023-05-10T10:22:38.773Z,576.00
2023-05-10T10:23:38.786Z,578.00
2023-05-10T10:24:38.791Z,582.00
2023-05-10T10:25:39.270Z,583.00
2023-05-10T10:26:38.776Z,583.00
2023-05-10T10:27:38.761Z,580.00
2023-05-10T10:28:38.777Z,584.00
2023-05-10T10:29:38.752Z,585.00
2023-05-10T10:30:39.237Z,585.00
2023-05-10T10:31:38.792Z,583.00
2023-05-10T10:32:38.794Z,587.00
2023-05-10T10:33:38.699Z,585.00
2023-05-10T10:34:38.713Z,585.00
2023-05-10T10:35:38.753Z,587.00
2023-05-10T10:36:38.730Z,584.00
2023-05-10T10:37:38.668Z,582.00
2023-05-10T10:38:38.694Z,589.00
2023-05-10T10:39:38.698Z,584.00
2023-05-10T10:40:38.750Z,587.00
2023-05-10T10:41:38.714Z,585.00
2023-05-10T10:42:38.733Z,588.00
2023-05-10T10:43:38.769Z,582.00
2023-05-10T10:44:38.786Z,584.00
2023-05-10T10:45:40.169Z,582.00
2023-05-10T10:46:38.889Z,589.00
2023-05-10T10:47:38.898Z,591.00
2023-05-10T10:48:38.906Z,584.00
2023-05-10T10:49:38.918Z,587.00
2023-05-10T10:50:39.262Z,587.00
2023-05-10T10:51:38.932Z,585.00
2023-05-10T10:52:38.928Z,586.00
2023-05-10T10:53:38.961Z,582.00
2023-05-10T10:54:38.965Z,587.00
2023-05-10T10:55:39.002Z,596.00
2023-05-10T10:56:39.130Z,590.00
2023-05-10T10:57:39.022Z,595.00
2023-05-10T10:58:39.122Z,595.00
2023-05-10T10:59:39.034Z,589.00
2023-05-10T11:00:39.084Z,584.00
2023-05-10T11:01:39.146Z,586.00
2023-05-10T11:02:39.116Z,585.00
2023-05-10T11:03:39.053Z,566.00
2023-05-10T11:04:39.084Z,579.00
2023-05-10T11:05:39.089Z,583.00
2023-05-10T11:06:39.103Z,585.00
2023-05-10T11:07:39.087Z,582.00
2023-05-10T11:08:39.109Z,585.00
2023-05-10T11:09:39.095Z,586.00
2023-05-10T11:10:39.174Z,596.00
2023-05-10T11:11:39.287Z,599.00
2023-05-10T11:12:39.122Z,597.00
2023-05-10T11:13:39.113Z,597.00
2023-05-10T11:14:39.149Z,594.00
2023-05-10T11:15:39.216Z,596.00
2023-05-10T11:16:39.332Z,591.00
2023-05-10T11:17:39.231Z,578.00
2023-05-10T11:18:39.228Z,564.00
2023-05-10T11:19:39.194Z,576.00
2023-05-10T11:20:39.252Z,576.00
2023-05-10T11:21:39.756Z,578.00
2023-05-10T11:22:39.271Z,581.00
2023-05-10T11:23:39.339Z,581.00
2023-05-10T11:24:39.334Z,584.00
2023-05-10T11:25:39.379Z,583.00
2023-05-10T11:26:39.783Z,576.00
2023-05-10T11:27:39.439Z,578.00
2023-05-10T11:28:39.442Z,578.00
2023-05-10T11:29:39.486Z,573.00
2023-05-10T11:30:39.551Z,567.00
2023-05-10T11:31:39.763Z,570.00
2023-05-10T11:32:39.586Z,562.00
2023-05-10T11:33:39.625Z,566.00
2023-05-10T11:34:39.645Z,573.00
2023-05-10T11:35:42.398Z,577.00
2023-05-10T11:36:39.775Z,586.00
2023-05-10T11:37:39.647Z,580.00
2023-05-10T11:38:39.657Z,582.00
2023-05-10T11:39:39.629Z,582.00
2023-05-10T11:40:39.634Z,585.00
2023-05-10T11:41:40.997Z,584.00
2023-05-10T11:42:39.873Z,584.00
2023-05-10T11:43:39.883Z,584.00
2023-05-10T11:44:39.928Z,584.00
2023-05-10T11:45:39.955Z,586.00
2023-05-10T11:46:40.299Z,586.00
2023-05-10T11:47:42.614Z,589.00
2023-05-10T11:48:40.085Z,591.00
2023-05-10T11:49:39.999Z,589.00
2023-05-10T11:50:40.028Z,590.00
2023-05-10T11:51:40.348Z,593.00
2023-05-10T11:52:39.976Z,591.00
2023-05-10T11:53:39.992Z,594.00
2023-05-10T11:54:39.940Z,586.00
2023-05-10T11:55:39.975Z,588.00
2023-05-10T11:56:40.272Z,588.00
2023-05-10T11:57:39.961Z,585.00
2023-05-10T11:58:39.928Z,589.00
2023-05-10T11:59:42.475Z,589.00
2023-05-10T12:00:40.021Z,589.00
2023-05-10T12:01:39.952Z,589.00
2023-05-10T12:02:40.017Z,589.00
2023-05-10T12:03:40.023Z,592.00
2023-05-10T12:04:39.978Z,593.00
2023-05-10T12:05:42.226Z,594.00
2023-05-10T12:06:40.280Z,594.00
2023-05-10T12:07:39.883Z,595.00
2023-05-10T12:08:39.888Z,593.00
2023-05-10T12:09:44.234Z,592.00
2023-05-10T12:10:39.945Z,595.00
2023-05-10T12:11:41.861Z,595.00
2023-05-10T12:12:39.849Z,594.00
2023-05-10T12:13:39.823Z,594.00
2023-05-10T12:14:39.856Z,594.00
2023-05-10T12:15:39.852Z,598.00
2023-05-10T12:16:39.879Z,595.00
2023-05-10T12:17:41.973Z,594.00
2023-05-10T12:18:39.813Z,595.00
2023-05-10T12:19:39.830Z,595.00
2023-05-10T12:20:39.801Z,594.00
2023-05-10T12:21:40.290Z,595.00
2023-05-10T12:22:39.783Z,591.00
2023-05-10T12:23:39.791Z,592.00
2023-05-10T12:24:39.783Z,590.00
2023-05-10T12:25:39.742Z,586.00
2023-05-10T12:26:39.762Z,594.00
2023-05-10T12:27:39.766Z,590.00
2023-05-10T12:28:39.720Z,591.00